sensor_id;sensor_type;location;lat;lon;timestamp;P1;durP1;ratioP1;P2;durP2;ratioP2
20511;SDS011;10414;52.074;5.126;2022-12-10T00:01:34;64.72;;;21.25;;
20511;SDS011;10414;52.074;5.126;2022-12-10T00:04:02;71.47;;;22.65;;
20511;SDS011;10414;52.074;5.126;2022-12-10T00:06:32;66.47;;;21.38;;
20511;SDS011;10414;52.074;5.126;2022-12-10T00:09:01;68.25;;;23.40;;
20511;SDS011;10414;52.074;5.126;2022-12-10T00:11:31;66.40;;;22.30;;
20511;SDS011;10414;52.074;5.126;2022-12-10T00:13:58;64.82;;;21.02;;
20511;SDS011;10414;52.074;5.126;2022-12-10T00:16:26;60.25;;;21.73;;
20511;SDS011;10414;52.074;5.126;2022-12-10T00:18:55;63.35;;;22.05;;
20511;SDS011;10414;52.074;5.126;2022-12-10T00:21:23;60.70;;;20.17;;
20511;SDS011;10414;52.074;5.126;2022-12-10T00:23:52;61.88;;;20.25;;
20511;SDS011;10414;52.074;5.126;2022-12-10T00:26:20;53.67;;;20.48;;
20511;SDS011;10414;52.074;5.126;2022-12-10T00:28:48;66.22;;;21.52;;
20511;SDS011;10414;52.074;5.126;2022-12-10T00:31:18;66.15;;;21.55;;
20511;SDS011;10414;52.074;5.126;2022-12-10T00:33:46;63.38;;;21.85;;
20511;SDS011;10414;52.074;5.126;2022-12-10T00:36:14;60.05;;;21.25;;
20511;SDS011;10414;52.074;5.126;2022-12-10T00:38:48;64.78;;;21.15;;
20511;SDS011;10414;52.074;5.126;2022-12-10T00:41:19;64.93;;;20.77;;
20511;SDS011;10414;52.074;5.126;2022-12-10T00:43:49;69.32;;;22.67;;
20511;SDS011;10414;52.074;5.126;2022-12-10T00:46:16;64.47;;;21.42;;
20511;SDS011;10414;52.074;5.126;2022-12-10T00:48:45;70.97;;;23.10;;
20511;SDS011;10414;52.074;5.126;2022-12-10T00:51:12;70.18;;;22.45;;
20511;SDS011;10414;52.074;5.126;2022-12-10T00:53:45;76.90;;;23.83;;
20511;SDS011;10414;52.074;5.126;2022-12-10T00:56:15;69.80;;;23.85;;
20511;SDS011;10414;52.074;5.126;2022-12-10T00:58:44;73.68;;;22.27;;
20511;SDS011;10414;52.074;5.126;2022-12-10T01:01:14;67.72;;;22.35;;
20511;SDS011;10414;52.074;5.126;2022-12-10T01:03:46;66.72;;;20.75;;
20511;SDS011;10414;52.074;5.126;2022-12-10T01:06:17;80.07;;;22.30;;
20511;SDS011;10414;52.074;5.126;2022-12-10T01:08:45;72.32;;;20.83;;
20511;SDS011;10414;52.074;5.126;2022-12-10T01:11:15;70.63;;;21.42;;
20511;SDS011;10414;52.074;5.126;2022-12-10T01:13:44;81.10;;;21.83;;
20511;SDS011;10414;52.074;5.126;2022-12-10T01:16:18;75.15;;;22.05;;
20511;SDS011;10414;52.074;5.126;2022-12-10T01:18:46;89.45;;;21.92;;
20511;SDS011;10414;52.074;5.126;2022-12-10T01:21:17;71.80;;;20.90;;
20511;SDS011;10414;52.074;5.126;2022-12-10T01:23:46;79.38;;;22.33;;
20511;SDS011;10414;52.074;5.126;2022-12-10T01:26:18;67.82;;;20.90;;
20511;SDS011;10414;52.074;5.126;2022-12-10T01:28:48;87.10;;;22.52;;
20511;SDS011;10414;52.074;5.126;2022-12-10T01:31:16;84.10;;;23.23;;
20511;SDS011;10414;52.074;5.126;2022-12-10T01:33:44;80.95;;;22.83;;
20511;SDS011;10414;52.074;5.126;2022-12-10T01:36:13;81.63;;;23.02;;
20511;SDS011;10414;52.074;5.126;2022-12-10T01:38:42;88.47;;;21.50;;
20511;SDS011;10414;52.074;5.126;2022-12-10T01:41:13;101.97;;;24.63;;
20511;SDS011;10414;52.074;5.126;2022-12-10T01:43:51;78.85;;;19.48;;
20511;SDS011;10414;52.074;5.126;2022-12-10T01:46:21;82.45;;;22.70;;
20511;SDS011;10414;52.074;5.126;2022-12-10T01:48:48;115.15;;;24.02;;
20511;SDS011;10414;52.074;5.126;2022-12-10T01:51:16;99.97;;;23.35;;
20511;SDS011;10414;52.074;5.126;2022-12-10T01:53:44;75.45;;;21.15;;
20511;SDS011;10414;52.074;5.126;2022-12-10T01:56:12;112.05;;;22.75;;
20511;SDS011;10414;52.074;5.126;2022-12-10T01:58:42;114.43;;;21.98;;
20511;SDS011;10414;52.074;5.126;2022-12-10T02:01:12;121.00;;;23.80;;
20511;SDS011;10414;52.074;5.126;2022-12-10T02:03:52;90.93;;;21.27;;
20511;SDS011;10414;52.074;5.126;2022-12-10T02:06:30;96.68;;;22.60;;
20511;SDS011;10414;52.074;5.126;2022-12-10T02:09:08;83.47;;;21.75;;
20511;SDS011;10414;52.074;5.126;2022-12-10T02:11:44;120.20;;;22.63;;
20511;SDS011;10414;52.074;5.126;2022-12-10T02:14:16;117.78;;;24.63;;
20511;SDS011;10414;52.074;5.126;2022-12-10T02:16:51;86.43;;;24.27;;
20511;SDS011;10414;52.074;5.126;2022-12-10T02:19:26;77.75;;;23.63;;
20511;SDS011;10414;52.074;5.126;2022-12-10T02:22:02;117.43;;;24.30;;
20511;SDS011;10414;52.074;5.126;2022-12-10T02:24:33;127.10;;;24.13;;
20511;SDS011;10414;52.074;5.126;2022-12-10T02:27:03;77.88;;;22.50;;
20511;SDS011;10414;52.074;5.126;2022-12-10T02:29:35;108.57;;;25.13;;
20511;SDS011;10414;52.074;5.126;2022-12-10T02:32:05;94.10;;;24.70;;
20511;SDS011;10414;52.074;5.126;2022-12-10T02:34:38;95.72;;;26.08;;
20511;SDS011;10414;52.074;5.126;2022-12-10T02:37:08;88.20;;;23.50;;
20511;SDS011;10414;52.074;5.126;2022-12-10T02:39:42;126.93;;;25.98;;
20511;SDS011;10414;52.074;5.126;2022-12-10T02:42:14;106.68;;;25.40;;
20511;SDS011;10414;52.074;5.126;2022-12-10T02:44:44;138.43;;;28.08;;
20511;SDS011;10414;52.074;5.126;2022-12-10T02:49:41;117.85;;;24.20;;
20511;SDS011;10414;52.074;5.126;2022-12-10T02:52:12;152.75;;;25.58;;
20511;SDS011;10414;52.074;5.126;2022-12-10T02:54:41;94.85;;;24.63;;
20511;SDS011;10414;52.074;5.126;2022-12-10T02:57:12;131.85;;;25.98;;
20511;SDS011;10414;52.074;5.126;2022-12-10T02:59:49;149.52;;;26.63;;
20511;SDS011;10414;52.074;5.126;2022-12-10T03:02:28;144.70;;;26.70;;
20511;SDS011;10414;52.074;5.126;2022-12-10T03:05:01;156.45;;;28.55;;
20511;SDS011;10414;52.074;5.126;2022-12-10T03:07:32;168.48;;;28.58;;
20511;SDS011;10414;52.074;5.126;2022-12-10T03:10:03;88.32;;;23.92;;
20511;SDS011;10414;52.074;5.126;2022-12-10T03:12:35;130.90;;;26.58;;
20511;SDS011;10414;52.074;5.126;2022-12-10T03:15:07;115.03;;;26.90;;
20511;SDS011;10414;52.074;5.126;2022-12-10T03:17:36;100.93;;;25.35;;
20511;SDS011;10414;52.074;5.126;2022-12-10T03:20:06;169.07;;;27.85;;
20511;SDS011;10414;52.074;5.126;2022-12-10T03:22:36;127.88;;;27.10;;
20511;SDS011;10414;52.074;5.126;2022-12-10T03:25:07;126.70;;;26.30;;
20511;SDS011;10414;52.074;5.126;2022-12-10T03:27:36;110.05;;;23.88;;
20511;SDS011;10414;52.074;5.126;2022-12-10T03:30:07;137.77;;;27.98;;
20511;SDS011;10414;52.074;5.126;2022-12-10T03:32:35;122.18;;;27.98;;
20511;SDS011;10414;52.074;5.126;2022-12-10T03:35:03;176.07;;;28.30;;
20511;SDS011;10414;52.074;5.126;2022-12-10T03:37:32;161.82;;;28.35;;
20511;SDS011;10414;52.074;5.126;2022-12-10T03:40:00;131.98;;;27.90;;
20511;SDS011;10414;52.074;5.126;2022-12-10T03:42:28;124.90;;;27.88;;
20511;SDS011;10414;52.074;5.126;2022-12-10T03:44:55;149.15;;;28.67;;
20511;SDS011;10414;52.074;5.126;2022-12-10T03:47:24;162.77;;;31.00;;
20511;SDS011;10414;52.074;5.126;2022-12-10T03:49:50;168.63;;;30.60;;
20511;SDS011;10414;52.074;5.126;2022-12-10T03:52:17;149.90;;;30.27;;
20511;SDS011;10414;52.074;5.126;2022-12-10T03:54:44;150.75;;;30.60;;
20511;SDS011;10414;52.074;5.126;2022-12-10T03:57:11;186.63;;;32.63;;
20511;SDS011;10414;52.074;5.126;2022-12-10T03:59:38;171.10;;;30.73;;
20511;SDS011;10414;52.074;5.126;2022-12-10T04:02:05;182.75;;;31.98;;
20511;SDS011;10414;52.074;5.126;2022-12-10T04:04:33;160.23;;;27.02;;
20511;SDS011;10414;52.074;5.126;2022-12-10T04:07:03;139.38;;;25.33;;
20511;SDS011;10414;52.074;5.126;2022-12-10T04:09:30;125.28;;;24.88;;
20511;SDS011;10414;52.074;5.126;2022-12-10T04:11:57;207.60;;;29.65;;
20511;SDS011;10414;52.074;5.126;2022-12-10T04:14:24;143.27;;;29.70;;
20511;SDS011;10414;52.074;5.126;2022-12-10T04:17:09;109.18;;;25.15;;
20511;SDS011;10414;52.074;5.126;2022-12-10T04:19:38;125.20;;;26.02;;
20511;SDS011;10414;52.074;5.126;2022-12-10T04:22:05;156.02;;;24.65;;
20511;SDS011;10414;52.074;5.126;2022-12-10T04:24:49;132.55;;;23.40;;
20511;SDS011;10414;52.074;5.126;2022-12-10T04:27:48;95.22;;;23.20;;
20511;SDS011;10414;52.074;5.126;2022-12-10T04:30:15;202.95;;;26.77;;
20511;SDS011;10414;52.074;5.126;2022-12-10T04:32:42;129.40;;;23.83;;
20511;SDS011;10414;52.074;5.126;2022-12-10T04:35:10;169.32;;;26.08;;
20511;SDS011;10414;52.074;5.126;2022-12-10T04:37:37;146.73;;;24.55;;
20511;SDS011;10414;52.074;5.126;2022-12-10T04:40:04;139.30;;;24.98;;
20511;SDS011;10414;52.074;5.126;2022-12-10T04:42:31;132.45;;;24.92;;
20511;SDS011;10414;52.074;5.126;2022-12-10T04:44:58;134.05;;;26.35;;
20511;SDS011;10414;52.074;5.126;2022-12-10T04:47:25;108.18;;;24.92;;
20511;SDS011;10414;52.074;5.126;2022-12-10T04:49:52;89.05;;;23.13;;
20511;SDS011;10414;52.074;5.126;2022-12-10T04:52:20;118.63;;;23.17;;
20511;SDS011;10414;52.074;5.126;2022-12-10T04:54:47;110.18;;;25.23;;
20511;SDS011;10414;52.074;5.126;2022-12-10T04:57:13;107.40;;;21.55;;
20511;SDS011;10414;52.074;5.126;2022-12-10T04:59:40;103.70;;;22.38;;
20511;SDS011;10414;52.074;5.126;2022-12-10T05:02:07;104.90;;;24.27;;
20511;SDS011;10414;52.074;5.126;2022-12-10T05:04:34;129.30;;;24.08;;
20511;SDS011;10414;52.074;5.126;2022-12-10T05:07:00;128.20;;;23.02;;
20511;SDS011;10414;52.074;5.126;2022-12-10T05:09:29;111.80;;;22.42;;
20511;SDS011;10414;52.074;5.126;2022-12-10T05:11:55;116.03;;;23.27;;
20511;SDS011;10414;52.074;5.126;2022-12-10T05:14:24;93.90;;;22.55;;
20511;SDS011;10414;52.074;5.126;2022-12-10T05:16:51;101.93;;;21.98;;
20511;SDS011;10414;52.074;5.126;2022-12-10T05:19:18;161.73;;;25.35;;
20511;SDS011;10414;52.074;5.126;2022-12-10T05:21:48;95.22;;;22.90;;
20511;SDS011;10414;52.074;5.126;2022-12-10T05:24:36;110.68;;;22.05;;
20511;SDS011;10414;52.074;5.126;2022-12-10T05:29:31;84.18;;;22.08;;
20511;SDS011;10414;52.074;5.126;2022-12-10T05:31:59;78.63;;;22.30;;
20511;SDS011;10414;52.074;5.126;2022-12-10T05:34:26;94.55;;;21.17;;
20511;SDS011;10414;52.074;5.126;2022-12-10T05:36:53;66.85;;;18.92;;
20511;SDS011;10414;52.074;5.126;2022-12-10T05:39:19;72.75;;;18.85;;
20511;SDS011;10414;52.074;5.126;2022-12-10T05:41:48;124.50;;;21.65;;
20511;SDS011;10414;52.074;5.126;2022-12-10T05:44:14;129.25;;;21.33;;
20511;SDS011;10414;52.074;5.126;2022-12-10T05:46:41;106.93;;;21.75;;
20511;SDS011;10414;52.074;5.126;2022-12-10T05:49:08;93.45;;;24.13;;
20511;SDS011;10414;52.074;5.126;2022-12-10T05:51:36;76.65;;;20.35;;
20511;SDS011;10414;52.074;5.126;2022-12-10T05:54:04;102.75;;;20.98;;
20511;SDS011;10414;52.074;5.126;2022-12-10T05:56:34;135.70;;;24.58;;
20511;SDS011;10414;52.074;5.126;2022-12-10T05:59:03;106.85;;;21.60;;
20511;SDS011;10414;52.074;5.126;2022-12-10T06:01:31;95.57;;;20.90;;
20511;SDS011;10414;52.074;5.126;2022-12-10T06:04:00;119.50;;;20.20;;
20511;SDS011;10414;52.074;5.126;2022-12-10T06:06:30;88.80;;;19.52;;
20511;SDS011;10414;52.074;5.126;2022-12-10T06:08:58;124.53;;;21.92;;
20511;SDS011;10414;52.074;5.126;2022-12-10T06:11:26;69.65;;;19.42;;
20511;SDS011;10414;52.074;5.126;2022-12-10T06:13:53;77.20;;;18.40;;
20511;SDS011;10414;52.074;5.126;2022-12-10T06:16:23;117.88;;;22.42;;
20511;SDS011;10414;52.074;5.126;2022-12-10T06:18:51;63.92;;;18.77;;
20511;SDS011;10414;52.074;5.126;2022-12-10T06:21:18;74.78;;;18.70;;
20511;SDS011;10414;52.074;5.126;2022-12-10T06:23:46;79.20;;;19.30;;
20511;SDS011;10414;52.074;5.126;2022-12-10T06:26:14;118.53;;;21.58;;
20511;SDS011;10414;52.074;5.126;2022-12-10T06:28:43;102.90;;;21.05;;
20511;SDS011;10414;52.074;5.126;2022-12-10T06:31:11;70.63;;;19.77;;
20511;SDS011;10414;52.074;5.126;2022-12-10T06:33:40;97.72;;;19.75;;
20511;SDS011;10414;52.074;5.126;2022-12-10T06:36:07;70.38;;;19.60;;
20511;SDS011;10414;52.074;5.126;2022-12-10T06:38:36;79.05;;;20.40;;
20511;SDS011;10414;52.074;5.126;2022-12-10T06:41:04;79.85;;;21.73;;
20511;SDS011;10414;52.074;5.126;2022-12-10T06:43:32;92.97;;;22.52;;
20511;SDS011;10414;52.074;5.126;2022-12-10T06:45:58;68.55;;;20.42;;
20511;SDS011;10414;52.074;5.126;2022-12-10T06:48:29;91.05;;;22.35;;
20511;SDS011;10414;52.074;5.126;2022-12-10T06:50:57;109.38;;;21.60;;
20511;SDS011;10414;52.074;5.126;2022-12-10T06:53:24;88.22;;;21.73;;
20511;SDS011;10414;52.074;5.126;2022-12-10T06:55:51;107.28;;;23.10;;
20511;SDS011;10414;52.074;5.126;2022-12-10T06:58:18;84.90;;;21.10;;
20511;SDS011;10414;52.074;5.126;2022-12-10T07:00:45;110.05;;;26.42;;
20511;SDS011;10414;52.074;5.126;2022-12-10T07:03:11;104.60;;;22.80;;
20511;SDS011;10414;52.074;5.126;2022-12-10T07:05:38;128.43;;;24.42;;
20511;SDS011;10414;52.074;5.126;2022-12-10T07:08:09;106.00;;;22.95;;
20511;SDS011;10414;52.074;5.126;2022-12-10T07:10:36;72.03;;;18.92;;
20511;SDS011;10414;52.074;5.126;2022-12-10T07:13:04;98.88;;;22.52;;
20511;SDS011;10414;52.074;5.126;2022-12-10T07:15:31;98.30;;;21.75;;
20511;SDS011;10414;52.074;5.126;2022-12-10T07:17:58;115.43;;;22.38;;
20511;SDS011;10414;52.074;5.126;2022-12-10T07:20:24;120.35;;;22.35;;
20511;SDS011;10414;52.074;5.126;2022-12-10T07:22:51;81.32;;;20.27;;
20511;SDS011;10414;52.074;5.126;2022-12-10T07:25:19;85.72;;;20.45;;
20511;SDS011;10414;52.074;5.126;2022-12-10T07:27:46;138.57;;;22.80;;
20511;SDS011;10414;52.074;5.126;2022-12-10T07:30:13;81.05;;;20.30;;
20511;SDS011;10414;52.074;5.126;2022-12-10T07:32:40;77.13;;;20.95;;
20511;SDS011;10414;52.074;5.126;2022-12-10T07:35:07;109.60;;;23.08;;
20511;SDS011;10414;52.074;5.126;2022-12-10T07:37:34;71.22;;;19.40;;
20511;SDS011;10414;52.074;5.126;2022-12-10T07:40:00;64.30;;;21.27;;
20511;SDS011;10414;52.074;5.126;2022-12-10T07:42:29;76.78;;;19.92;;
20511;SDS011;10414;52.074;5.126;2022-12-10T07:44:55;93.93;;;20.00;;
20511;SDS011;10414;52.074;5.126;2022-12-10T07:47:22;73.32;;;19.95;;
20511;SDS011;10414;52.074;5.126;2022-12-10T07:49:49;69.47;;;20.08;;
20511;SDS011;10414;52.074;5.126;2022-12-10T07:52:16;99.45;;;20.95;;
20511;SDS011;10414;52.074;5.126;2022-12-10T07:54:43;83.93;;;21.70;;
20511;SDS011;10414;52.074;5.126;2022-12-10T07:57:10;89.35;;;22.15;;
20511;SDS011;10414;52.074;5.126;2022-12-10T07:59:38;70.68;;;20.80;;
20511;SDS011;10414;52.074;5.126;2022-12-10T08:02:05;72.97;;;20.65;;
20511;SDS011;10414;52.074;5.126;2022-12-10T08:04:31;69.82;;;22.17;;
20511;SDS011;10414;52.074;5.126;2022-12-10T08:06:58;83.15;;;20.88;;
20511;SDS011;10414;52.074;5.126;2022-12-10T08:09:27;73.05;;;21.30;;
20511;SDS011;10414;52.074;5.126;2022-12-10T08:11:54;96.32;;;23.02;;
20511;SDS011;10414;52.074;5.126;2022-12-10T08:14:21;102.47;;;25.40;;
20511;SDS011;10414;52.074;5.126;2022-12-10T08:16:49;95.97;;;24.10;;
20511;SDS011;10414;52.074;5.126;2022-12-10T08:19:16;73.45;;;21.63;;
20511;SDS011;10414;52.074;5.126;2022-12-10T08:21:43;73.00;;;21.02;;
20511;SDS011;10414;52.074;5.126;2022-12-10T08:24:13;89.27;;;20.97;;
20511;SDS011;10414;52.074;5.126;2022-12-10T08:26:40;96.15;;;20.83;;
20511;SDS011;10414;52.074;5.126;2022-12-10T08:29:06;88.63;;;21.90;;
20511;SDS011;10414;52.074;5.126;2022-12-10T08:31:33;70.82;;;19.50;;
20511;SDS011;10414;52.074;5.126;2022-12-10T08:34:01;94.97;;;22.73;;
20511;SDS011;10414;52.074;5.126;2022-12-10T08:36:29;83.78;;;20.85;;
20511;SDS011;10414;52.074;5.126;2022-12-10T08:38:56;71.85;;;22.33;;
20511;SDS011;10414;52.074;5.126;2022-12-10T08:41:23;92.47;;;22.63;;
20511;SDS011;10414;52.074;5.126;2022-12-10T08:43:50;125.05;;;22.55;;
20511;SDS011;10414;52.074;5.126;2022-12-10T08:46:18;99.35;;;21.70;;
20511;SDS011;10414;52.074;5.126;2022-12-10T08:48:45;103.88;;;21.63;;
20511;SDS011;10414;52.074;5.126;2022-12-10T08:51:15;80.00;;;20.58;;
20511;SDS011;10414;52.074;5.126;2022-12-10T08:53:43;82.55;;;20.38;;
20511;SDS011;10414;52.074;5.126;2022-12-10T08:56:11;79.57;;;21.80;;
20511;SDS011;10414;52.074;5.126;2022-12-10T08:58:38;78.78;;;20.58;;
20511;SDS011;10414;52.074;5.126;2022-12-10T09:01:05;77.43;;;20.25;;
20511;SDS011;10414;52.074;5.126;2022-12-10T09:03:33;94.60;;;22.10;;
20511;SDS011;10414;52.074;5.126;2022-12-10T09:06:03;88.57;;;19.77;;
20511;SDS011;10414;52.074;5.126;2022-12-10T09:11:03;67.25;;;18.52;;
20511;SDS011;10414;52.074;5.126;2022-12-10T09:13:31;89.97;;;21.23;;
20511;SDS011;10414;52.074;5.126;2022-12-10T09:15:58;107.00;;;23.92;;
20511;SDS011;10414;52.074;5.126;2022-12-10T09:18:25;88.72;;;18.38;;
20511;SDS011;10414;52.074;5.126;2022-12-10T09:20:52;72.05;;;18.45;;
20511;SDS011;10414;52.074;5.126;2022-12-10T09:23:18;81.25;;;20.30;;
20511;SDS011;10414;52.074;5.126;2022-12-10T09:25:47;74.13;;;17.67;;
20511;SDS011;10414;52.074;5.126;2022-12-10T09:28:13;76.00;;;19.58;;
20511;SDS011;10414;52.074;5.126;2022-12-10T09:30:40;65.55;;;18.55;;
20511;SDS011;10414;52.074;5.126;2022-12-10T09:33:07;66.28;;;19.05;;
20511;SDS011;10414;52.074;5.126;2022-12-10T09:35:34;72.40;;;19.98;;
20511;SDS011;10414;52.074;5.126;2022-12-10T09:40:35;62.03;;;18.33;;
20511;SDS011;10414;52.074;5.126;2022-12-10T09:43:09;81.85;;;20.13;;
20511;SDS011;10414;52.074;5.126;2022-12-10T09:45:44;59.00;;;16.33;;
20511;SDS011;10414;52.074;5.126;2022-12-10T09:48:25;59.45;;;17.48;;
20511;SDS011;10414;52.074;5.126;2022-12-10T09:51:00;84.47;;;19.42;;
20511;SDS011;10414;52.074;5.126;2022-12-10T09:53:31;62.20;;;18.98;;
20511;SDS011;10414;52.074;5.126;2022-12-10T09:56:00;67.43;;;19.75;;
20511;SDS011;10414;52.074;5.126;2022-12-10T09:58:28;71.43;;;19.20;;
20511;SDS011;10414;52.074;5.126;2022-12-10T10:00:56;73.95;;;18.60;;
20511;SDS011;10414;52.074;5.126;2022-12-10T10:03:25;62.90;;;17.95;;
20511;SDS011;10414;52.074;5.126;2022-12-10T10:05:52;67.38;;;18.15;;
20511;SDS011;10414;52.074;5.126;2022-12-10T10:08:23;59.73;;;18.07;;
20511;SDS011;10414;52.074;5.126;2022-12-10T10:10:54;63.40;;;15.80;;
20511;SDS011;10414;52.074;5.126;2022-12-10T10:13:24;77.43;;;19.20;;
20511;SDS011;10414;52.074;5.126;2022-12-10T10:15:57;86.53;;;19.52;;
20511;SDS011;10414;52.074;5.126;2022-12-10T10:18:43;74.57;;;19.10;;
20511;SDS011;10414;52.074;5.126;2022-12-10T10:21:14;67.82;;;17.77;;
20511;SDS011;10414;52.074;5.126;2022-12-10T10:23:52;68.20;;;18.77;;
20511;SDS011;10414;52.074;5.126;2022-12-10T10:26:23;66.63;;;17.48;;
20511;SDS011;10414;52.074;5.126;2022-12-10T10:28:53;65.40;;;16.73;;
20511;SDS011;10414;52.074;5.126;2022-12-10T10:31:24;57.10;;;15.48;;
20511;SDS011;10414;52.074;5.126;2022-12-10T10:33:53;63.20;;;16.85;;
20511;SDS011;10414;52.074;5.126;2022-12-10T10:36:22;60.73;;;17.10;;
20511;SDS011;10414;52.074;5.126;2022-12-10T10:38:51;57.22;;;15.70;;
20511;SDS011;10414;52.074;5.126;2022-12-10T10:41:19;61.65;;;16.10;;
20511;SDS011;10414;52.074;5.126;2022-12-10T10:43:46;58.72;;;15.88;;
20511;SDS011;10414;52.074;5.126;2022-12-10T10:46:17;60.23;;;16.93;;
20511;SDS011;10414;52.074;5.126;2022-12-10T10:48:48;60.38;;;17.40;;
20511;SDS011;10414;52.074;5.126;2022-12-10T10:51:18;65.47;;;17.85;;
20511;SDS011;10414;52.074;5.126;2022-12-10T10:53:48;70.78;;;19.70;;
20511;SDS011;10414;52.074;5.126;2022-12-10T10:56:17;63.83;;;17.75;;
20511;SDS011;10414;52.074;5.126;2022-12-10T10:58:49;73.23;;;19.33;;
20511;SDS011;10414;52.074;5.126;2022-12-10T11:01:20;64.40;;;18.15;;
20511;SDS011;10414;52.074;5.126;2022-12-10T11:03:50;70.97;;;18.83;;
20511;SDS011;10414;52.074;5.126;2022-12-10T11:06:21;76.95;;;18.30;;
20511;SDS011;10414;52.074;5.126;2022-12-10T11:08:56;62.30;;;17.13;;
20511;SDS011;10414;52.074;5.126;2022-12-10T11:11:25;56.72;;;17.00;;
20511;SDS011;10414;52.074;5.126;2022-12-10T11:14:12;63.95;;;16.92;;
20511;SDS011;10414;52.074;5.126;2022-12-10T11:16:47;62.40;;;16.83;;
20511;SDS011;10414;52.074;5.126;2022-12-10T11:19:18;65.15;;;16.90;;
20511;SDS011;10414;52.074;5.126;2022-12-10T11:21:47;58.22;;;17.02;;
20511;SDS011;10414;52.074;5.126;2022-12-10T11:24:15;60.10;;;15.90;;
20511;SDS011;10414;52.074;5.126;2022-12-10T11:26:57;64.20;;;18.95;;
20511;SDS011;10414;52.074;5.126;2022-12-10T11:32:23;63.05;;;16.83;;
20511;SDS011;10414;52.074;5.126;2022-12-10T11:35:01;64.28;;;18.95;;
20511;SDS011;10414;52.074;5.126;2022-12-10T11:37:36;57.40;;;16.77;;
20511;SDS011;10414;52.074;5.126;2022-12-10T11:40:19;66.00;;;17.42;;
20511;SDS011;10414;52.074;5.126;2022-12-10T11:42:58;67.25;;;17.25;;
20511;SDS011;10414;52.074;5.126;2022-12-10T11:45:42;59.92;;;16.50;;
20511;SDS011;10414;52.074;5.126;2022-12-10T11:48:20;62.15;;;16.75;;
20511;SDS011;10414;52.074;5.126;2022-12-10T11:50:57;65.25;;;17.80;;
20511;SDS011;10414;52.074;5.126;2022-12-10T11:53:34;57.85;;;16.08;;
20511;SDS011;10414;52.074;5.126;2022-12-10T11:56:10;50.13;;;15.10;;
20511;SDS011;10414;52.074;5.126;2022-12-10T11:58:46;60.53;;;16.95;;
20511;SDS011;10414;52.074;5.126;2022-12-10T12:01:24;63.50;;;15.82;;
20511;SDS011;10414;52.074;5.126;2022-12-10T12:07:35;44.40;;;12.30;;
20511;SDS011;10414;52.074;5.126;2022-12-10T12:13:07;47.92;;;13.05;;
20511;SDS011;10414;52.074;5.126;2022-12-10T12:15:39;50.72;;;14.50;;
20511;SDS011;10414;52.074;5.126;2022-12-10T12:18:12;57.90;;;15.65;;
20511;SDS011;10414;52.074;5.126;2022-12-10T12:20:44;51.78;;;15.95;;
20511;SDS011;10414;52.074;5.126;2022-12-10T12:23:19;57.15;;;15.52;;
20511;SDS011;10414;52.074;5.126;2022-12-10T12:25:51;50.97;;;16.17;;
20511;SDS011;10414;52.074;5.126;2022-12-10T12:28:24;53.03;;;14.07;;
20511;SDS011;10414;52.074;5.126;2022-12-10T12:30:57;53.35;;;14.02;;
20511;SDS011;10414;52.074;5.126;2022-12-10T12:33:28;50.53;;;13.75;;
20511;SDS011;10414;52.074;5.126;2022-12-10T12:36:04;53.40;;;15.27;;
20511;SDS011;10414;52.074;5.126;2022-12-10T12:38:38;58.90;;;14.93;;
20511;SDS011;10414;52.074;5.126;2022-12-10T12:41:13;58.35;;;15.27;;
20511;SDS011;10414;52.074;5.126;2022-12-10T12:43:44;49.88;;;13.98;;
20511;SDS011;10414;52.074;5.126;2022-12-10T12:46:20;53.47;;;16.48;;
20511;SDS011;10414;52.074;5.126;2022-12-10T12:48:53;54.80;;;14.10;;
20511;SDS011;10414;52.074;5.126;2022-12-10T12:51:26;49.25;;;15.05;;
20511;SDS011;10414;52.074;5.126;2022-12-10T12:53:58;44.95;;;13.60;;
20511;SDS011;10414;52.074;5.126;2022-12-10T12:56:27;53.33;;;13.52;;
20511;SDS011;10414;52.074;5.126;2022-12-10T12:59:04;58.55;;;15.48;;
20511;SDS011;10414;52.074;5.126;2022-12-10T13:01:39;55.17;;;14.30;;
20511;SDS011;10414;52.074;5.126;2022-12-10T13:04:14;40.08;;;12.85;;
20511;SDS011;10414;52.074;5.126;2022-12-10T13:07:08;65.50;;;14.57;;
20511;SDS011;10414;52.074;5.126;2022-12-10T13:09:42;64.30;;;16.48;;
20511;SDS011;10414;52.074;5.126;2022-12-10T13:12:17;77.90;;;15.43;;
20511;SDS011;10414;52.074;5.126;2022-12-10T13:14:54;49.75;;;14.48;;
20511;SDS011;10414;52.074;5.126;2022-12-10T13:17:31;51.25;;;14.60;;
20511;SDS011;10414;52.074;5.126;2022-12-10T13:22:57;54.55;;;15.65;;
20511;SDS011;10414;52.074;5.126;2022-12-10T13:25:39;48.75;;;14.88;;
20511;SDS011;10414;52.074;5.126;2022-12-10T13:28:22;49.38;;;14.20;;
20511;SDS011;10414;52.074;5.126;2022-12-10T13:31:07;51.80;;;14.95;;
20511;SDS011;10414;52.074;5.126;2022-12-10T13:33:45;51.25;;;13.77;;
20511;SDS011;10414;52.074;5.126;2022-12-10T13:36:19;50.63;;;14.07;;
20511;SDS011;10414;52.074;5.126;2022-12-10T13:38:56;63.65;;;14.90;;
20511;SDS011;10414;52.074;5.126;2022-12-10T13:41:40;49.70;;;12.65;;
20511;SDS011;10414;52.074;5.126;2022-12-10T13:44:58;63.95;;;15.10;;
20511;SDS011;10414;52.074;5.126;2022-12-10T13:47:31;50.35;;;14.02;;
20511;SDS011;10414;52.074;5.126;2022-12-10T13:50:14;60.22;;;16.05;;
20511;SDS011;10414;52.074;5.126;2022-12-10T13:52:44;49.13;;;14.68;;
20511;SDS011;10414;52.074;5.126;2022-12-10T13:55:25;54.45;;;14.95;;
20511;SDS011;10414;52.074;5.126;2022-12-10T13:58:01;69.90;;;15.30;;
20511;SDS011;10414;52.074;5.126;2022-12-10T14:00:57;56.58;;;15.63;;
20511;SDS011;10414;52.074;5.126;2022-12-10T14:03:43;55.17;;;15.30;;
20511;SDS011;10414;52.074;5.126;2022-12-10T14:06:21;62.80;;;15.65;;
20511;SDS011;10414;52.074;5.126;2022-12-10T14:08:54;49.65;;;14.70;;
20511;SDS011;10414;52.074;5.126;2022-12-10T14:11:25;66.50;;;16.65;;
20511;SDS011;10414;52.074;5.126;2022-12-10T14:13:57;61.72;;;16.17;;
20511;SDS011;10414;52.074;5.126;2022-12-10T14:16:28;59.33;;;16.92;;
20511;SDS011;10414;52.074;5.126;2022-12-10T14:18:58;64.63;;;15.88;;
20511;SDS011;10414;52.074;5.126;2022-12-10T14:21:27;65.53;;;15.77;;
20511;SDS011;10414;52.074;5.126;2022-12-10T14:24:02;60.58;;;16.77;;
20511;SDS011;10414;52.074;5.126;2022-12-10T14:26:30;61.22;;;16.55;;
20511;SDS011;10414;52.074;5.126;2022-12-10T14:29:16;67.38;;;17.10;;
20511;SDS011;10414;52.074;5.126;2022-12-10T14:31:48;69.95;;;17.80;;
20511;SDS011;10414;52.074;5.126;2022-12-10T14:34:16;60.03;;;16.38;;
20511;SDS011;10414;52.074;5.126;2022-12-10T14:36:46;86.50;;;19.10;;
20511;SDS011;10414;52.074;5.126;2022-12-10T14:41:44;62.40;;;15.98;;
20511;SDS011;10414;52.074;5.126;2022-12-10T14:44:13;75.43;;;17.75;;
20511;SDS011;10414;52.074;5.126;2022-12-10T14:46:42;78.78;;;18.02;;
20511;SDS011;10414;52.074;5.126;2022-12-10T14:49:13;74.50;;;17.55;;
20511;SDS011;10414;52.074;5.126;2022-12-10T14:51:42;70.68;;;17.63;;
20511;SDS011;10414;52.074;5.126;2022-12-10T14:54:27;70.88;;;17.08;;
20511;SDS011;10414;52.074;5.126;2022-12-10T14:56:56;76.97;;;18.30;;
20511;SDS011;10414;52.074;5.126;2022-12-10T14:59:26;87.82;;;19.00;;
20511;SDS011;10414;52.074;5.126;2022-12-10T15:01:58;62.58;;;18.70;;
20511;SDS011;10414;52.074;5.126;2022-12-10T15:04:30;76.97;;;19.63;;